createdAt,value
2017-11-17T00:00:24.616Z,19.38
2017-11-17T00:00:57.535Z,19.24
2017-11-17T00:01:30.588Z,19.29
2017-11-17T00:02:03.615Z,19.31
2017-11-17T00:02:36.561Z,19.35
2017-11-17T00:03:09.583Z,19.38
2017-11-17T00:03:42.733Z,19.28
2017-11-17T00:04:15.644Z,19.28
2017-11-17T00:04:48.703Z,19.29
2017-11-17T00:05:21.684Z,19.33
2017-11-17T00:05:54.635Z,19.29
2017-11-17T00:06:27.513Z,19.21
2017-11-17T00:07:00.675Z,19.28
2017-11-17T00:07:33.896Z,19.33
2017-11-17T00:08:06.839Z,19.31
2017-11-17T00:08:39.861Z,19.33
2017-11-17T00:09:12.768Z,19.28
2017-11-17T00:09:45.714Z,19.28
2017-11-17T00:10:18.960Z,19.31
2017-11-17T00:10:52.278Z,19.31
2017-11-17T00:11:25.441Z,19.33
2017-11-17T00:11:58.321Z,19.29
2017-11-17T00:12:31.528Z,19.21
2017-11-17T00:13:04.618Z,19.23
2017-11-17T00:13:37.621Z,19.29
2017-11-17T00:14:10.538Z,19.23
2017-11-17T00:14:43.585Z,19.32
2017-11-17T00:15:16.495Z,19.17
2017-11-17T00:15:49.700Z,19.24
2017-11-17T00:16:22.780Z,19.29
2017-11-17T00:16:55.695Z,19.21
2017-11-17T00:17:28.572Z,19.14
2017-11-17T00:18:01.680Z,19.31
2017-11-17T00:18:34.813Z,19.28
2017-11-17T00:19:07.856Z,19.18
2017-11-17T00:19:40.836Z,19.20
2017-11-17T00:20:13.843Z,19.24
2017-11-17T00:20:46.896Z,19.23
2017-11-17T00:21:20.152Z,19.15
2017-11-17T00:21:53.025Z,19.24
2017-11-17T00:22:26.074Z,19.25
2017-11-17T00:22:59.162Z,19.20
2017-11-17T00:23:32.301Z,19.23
2017-11-17T00:24:05.388Z,19.20
2017-11-17T00:24:38.601Z,19.18
2017-11-17T00:25:11.581Z,19.15
2017-11-17T00:25:44.628Z,19.15
2017-11-17T00:26:17.579Z,19.20
2017-11-17T00:26:50.524Z,19.18
2017-11-17T00:27:23.405Z,19.21
2017-11-17T00:27:56.456Z,19.21
2017-11-17T00:28:29.478Z,19.18
2017-11-17T00:29:02.629Z,19.20
2017-11-17T00:29:35.650Z,19.13
2017-11-17T00:30:09.065Z,19.18
2017-11-17T00:30:42.181Z,19.20
2017-11-17T00:31:15.425Z,19.23
2017-11-17T00:31:48.537Z,19.08
2017-11-17T00:32:21.485Z,19.17
2017-11-17T00:32:54.905Z,19.20
2017-11-17T00:33:28.013Z,19.10
2017-11-17T00:34:01.042Z,19.14
2017-11-17T00:34:34.154Z,19.24
2017-11-17T00:35:07.039Z,19.21
2017-11-17T00:35:39.990Z,19.11
2017-11-17T00:36:13.113Z,19.10
2017-11-17T00:36:46.261Z,19.23
2017-11-17T00:37:19.212Z,19.23
2017-11-17T00:37:52.363Z,19.18
2017-11-17T00:38:25.492Z,19.11
2017-11-17T00:38:58.740Z,19.25
2017-11-17T00:39:31.762Z,19.11
2017-11-17T00:40:04.821Z,19.18
2017-11-17T00:40:38.003Z,19.10
2017-11-17T00:41:11.361Z,19.21
2017-11-17T00:41:44.558Z,19.10
2017-11-17T00:42:17.515Z,19.23
2017-11-17T00:42:50.660Z,19.18
2017-11-17T00:43:23.711Z,19.17
2017-11-17T00:43:56.895Z,19.21
2017-11-17T00:44:30.144Z,19.08
2017-11-17T00:45:03.389Z,19.10
2017-11-17T00:45:36.645Z,19.15
2017-11-17T00:46:09.571Z,19.20
2017-11-17T00:46:42.719Z,19.17
2017-11-17T00:47:15.841Z,19.18
2017-11-17T00:47:48.755Z,19.14
2017-11-17T00:48:21.904Z,19.18
2017-11-17T00:48:54.812Z,19.13
2017-11-17T00:49:28.035Z,19.11
2017-11-17T00:50:01.189Z,19.13
2017-11-17T00:50:34.314Z,19.05
2017-11-17T00:51:07.364Z,19.15
2017-11-17T00:51:40.494Z,19.13
2017-11-17T00:52:13.743Z,19.11
2017-11-17T00:52:46.831Z,19.11
2017-11-17T00:53:19.778Z,19.06
2017-11-17T00:53:53.092Z,19.05
2017-11-17T00:54:26.341Z,19.05
2017-11-17T00:54:59.466Z,19.10
2017-11-17T00:55:32.376Z,19.10
2017-11-17T00:56:05.253Z,19.15
2017-11-17T00:56:38.604Z,19.08
2017-11-17T00:57:11.823Z,19.10
2017-11-17T00:57:44.832Z,19.06
2017-11-17T00:58:18.020Z,19.02
2017-11-17T00:58:51.160Z,19.08
2017-11-17T00:59:24.167Z,19.02
2017-11-17T00:59:57.211Z,19.01
2017-11-17T01:00:30.333Z,19.10
2017-11-17T01:01:03.539Z,18.99
2017-11-17T01:01:36.763Z,19.02
2017-11-17T01:02:09.773Z,19.02
2017-11-17T01:02:42.953Z,18.99
2017-11-17T01:03:16.319Z,19.05
2017-11-17T01:03:49.483Z,19.01
2017-11-17T01:04:22.630Z,18.99
2017-11-17T01:04:55.578Z,18.97
2017-11-17T01:05:28.589Z,19.05
2017-11-17T01:06:01.671Z,19.01
2017-11-17T01:06:34.679Z,19.10
2017-11-17T01:07:07.900Z,19.06
2017-11-17T01:07:41.058Z,19.01
2017-11-17T01:08:14.360Z,19.01
2017-11-17T01:08:47.370Z,19.01
2017-11-17T01:09:20.494Z,19.08
2017-11-17T01:09:53.538Z,19.08
2017-11-17T01:10:26.784Z,19.10
2017-11-17T01:10:59.892Z,19.01
2017-11-17T01:11:32.819Z,19.06
2017-11-17T01:12:05.963Z,19.01
2017-11-17T01:12:38.941Z,19.02
2017-11-17T01:13:11.894Z,19.10
2017-11-17T01:13:44.871Z,19.01
2017-11-17T01:14:18.019Z,19.11
2017-11-17T01:14:51.006Z,19.11
2017-11-17T01:15:23.952Z,19.10
2017-11-17T01:15:57.196Z,19.08
2017-11-17T01:16:30.243Z,19.08
2017-11-17T01:17:03.378Z,19.11
2017-11-17T01:17:36.327Z,19.13
2017-11-17T01:18:09.546Z,18.98
2017-11-17T01:18:42.593Z,19.05
2017-11-17T01:19:15.716Z,19.11
2017-11-17T01:19:49.064Z,18.98
2017-11-17T01:20:21.947Z,19.13
2017-11-17T01:20:55.101Z,19.01
2017-11-17T01:21:28.219Z,19.01
2017-11-17T01:22:01.263Z,19.11
2017-11-17T01:22:34.248Z,18.99
2017-11-17T01:23:07.354Z,19.11
2017-11-17T01:23:40.675Z,19.08
2017-11-17T01:24:13.839Z,19.08
2017-11-17T01:24:46.913Z,19.02
2017-11-17T01:25:19.921Z,19.02
2017-11-17T01:25:52.842Z,19.06
2017-11-17T01:26:26.195Z,19.08
2017-11-17T01:26:59.314Z,18.97
2017-11-17T01:27:32.462Z,19.01
2017-11-17T01:28:05.648Z,19.11
2017-11-17T01:28:38.961Z,19.02
2017-11-17T01:29:11.982Z,18.98
2017-11-17T01:29:45.331Z,19.02
2017-11-17T01:30:18.514Z,19.14
2017-11-17T01:30:51.524Z,19.05
2017-11-17T01:31:24.645Z,19.02
2017-11-17T01:31:57.696Z,18.98
2017-11-17T01:32:30.752Z,19.06
2017-11-17T01:33:03.967Z,19.08
2017-11-17T01:33:37.188Z,18.97
2017-11-17T01:34:10.258Z,19.05
2017-11-17T01:34:43.126Z,19.11
2017-11-17T01:35:16.239Z,19.06
2017-11-17T01:35:49.361Z,19.05
2017-11-17T01:36:22.277Z,18.99
2017-11-17T01:36:55.261Z,18.99
2017-11-17T01:37:28.270Z,19.10
2017-11-17T01:38:01.282Z,19.02
2017-11-17T01:38:34.437Z,19.02
2017-11-17T01:39:07.777Z,18.94
2017-11-17T01:39:40.893Z,18.94
2017-11-17T01:40:14.216Z,19.02
2017-11-17T01:40:47.230Z,19.06
2017-11-17T01:41:20.214Z,19.06
2017-11-17T01:41:53.271Z,19.02
2017-11-17T01:42:26.392Z,19.08
2017-11-17T01:42:59.402Z,19.06
2017-11-17T01:43:32.418Z,19.08
2017-11-17T01:44:05.528Z,19.05
2017-11-17T01:44:38.548Z,19.08
2017-11-17T01:45:11.658Z,19.02
2017-11-17T01:45:45.083Z,18.94
2017-11-17T01:46:18.236Z,19.08
2017-11-17T01:46:51.321Z,18.94
2017-11-17T01:47:24.376Z,19.06
2017-11-17T01:47:57.465Z,18.91
2017-11-17T01:48:30.577Z,19.02
2017-11-17T01:49:03.587Z,18.95
2017-11-17T01:49:36.600Z,18.94
2017-11-17T01:50:09.729Z,19.10
2017-11-17T01:50:42.879Z,19.02
2017-11-17T01:51:15.766Z,19.05
2017-11-17T01:51:48.821Z,18.99
2017-11-17T01:52:22.144Z,19.01
2017-11-17T01:52:55.496Z,18.95
2017-11-17T01:53:28.523Z,19.02
2017-11-17T01:54:01.572Z,19.01
2017-11-17T01:54:34.823Z,19.06
2017-11-17T01:55:07.979Z,18.98
2017-11-17T01:55:41.165Z,18.99
2017-11-17T01:56:14.415Z,18.97
2017-11-17T01:56:47.699Z,19.01
2017-11-17T01:57:20.850Z,19.08
2017-11-17T01:57:53.972Z,19.02
2017-11-17T01:58:27.282Z,19.11
2017-11-17T01:59:00.504Z,18.97
2017-11-17T01:59:33.857Z,18.99
2017-11-17T02:00:07.007Z,18.99
2017-11-17T02:00:40.176Z,18.97
2017-11-17T02:01:13.144Z,18.98
2017-11-17T02:01:46.300Z,18.99
2017-11-17T02:02:19.178Z,18.99
2017-11-17T02:02:52.190Z,18.97
2017-11-17T02:03:25.076Z,18.97
2017-11-17T02:03:58.328Z,19.05
2017-11-17T02:04:31.309Z,18.97
2017-11-17T02:05:04.427Z,18.97
2017-11-17T02:05:37.750Z,19.02
2017-11-17T02:06:10.998Z,19.05
2017-11-17T02:06:44.220Z,19.01
2017-11-17T02:07:17.432Z,18.97
2017-11-17T02:07:50.458Z,19.01
2017-11-17T02:08:23.364Z,19.01
2017-11-17T02:08:56.389Z,19.01
2017-11-17T02:09:29.338Z,18.97
2017-11-17T02:10:02.519Z,18.92
2017-11-17T02:10:35.672Z,19.01
2017-11-17T02:11:08.823Z,18.99
2017-11-17T02:11:41.733Z,18.98
2017-11-17T02:12:14.849Z,18.97
2017-11-17T02:12:48.000Z,18.97
2017-11-17T02:13:21.122Z,18.98
2017-11-17T02:13:54.177Z,18.97
2017-11-17T02:14:27.460Z,18.99
2017-11-17T02:15:00.517Z,18.99
2017-11-17T02:15:33.537Z,19.01
2017-11-17T02:16:06.846Z,18.95
2017-11-17T02:16:39.854Z,18.99
2017-11-17T02:17:13.003Z,19.06
2017-11-17T02:17:46.083Z,18.92
2017-11-17T02:18:19.308Z,19.02
2017-11-17T02:18:52.194Z,18.99
2017-11-17T02:19:25.337Z,18.94
2017-11-17T02:19:58.368Z,18.94
2017-11-17T02:20:31.316Z,18.92
2017-11-17T02:21:04.506Z,18.94
2017-11-17T02:21:37.551Z,19.02
2017-11-17T02:22:10.870Z,19.02
2017-11-17T02:22:43.928Z,19.01
2017-11-17T02:23:16.754Z,18.94
2017-11-17T02:23:49.762Z,18.90
2017-11-17T02:24:22.990Z,18.90
2017-11-17T02:24:56.006Z,19.01
2017-11-17T02:25:29.231Z,18.98
2017-11-17T02:26:02.284Z,18.91
2017-11-17T02:26:35.317Z,18.94
2017-11-17T02:27:08.356Z,18.92
2017-11-17T02:27:41.348Z,18.90
2017-11-17T02:28:14.257Z,18.91
2017-11-17T02:28:47.482Z,18.94
2017-11-17T02:29:20.794Z,18.94
2017-11-17T02:29:53.818Z,18.94
2017-11-17T02:30:26.933Z,18.92
2017-11-17T02:30:59.958Z,18.92
2017-11-17T02:31:33.115Z,18.97
2017-11-17T02:32:06.145Z,18.90
2017-11-17T02:32:39.340Z,18.92
2017-11-17T02:33:12.654Z,18.95
2017-11-17T02:33:45.611Z,18.95
2017-11-17T02:34:18.739Z,18.94
2017-11-17T02:34:51.690Z,18.92
2017-11-17T02:35:24.619Z,18.91
2017-11-17T02:35:57.829Z,18.94
2017-11-17T02:36:30.858Z,18.95
2017-11-17T02:37:04.214Z,18.90
2017-11-17T02:37:37.138Z,18.91
2017-11-17T02:38:10.323Z,18.90
2017-11-17T02:38:43.412Z,18.80
2017-11-17T02:39:16.421Z,18.90
2017-11-17T02:39:49.458Z,18.94
2017-11-17T02:40:22.802Z,18.91
2017-11-17T02:40:55.929Z,18.84
2017-11-17T02:41:28.883Z,18.83
2017-11-17T02:42:02.012Z,18.87
2017-11-17T02:42:35.164Z,18.80
2017-11-17T02:43:08.152Z,18.90
2017-11-17T02:43:41.233Z,18.91
2017-11-17T02:44:14.218Z,18.92
2017-11-17T02:44:47.466Z,18.86
2017-11-17T02:45:20.400Z,18.82
2017-11-17T02:45:53.655Z,18.82
2017-11-17T02:46:26.641Z,18.83
2017-11-17T02:46:59.662Z,18.76
2017-11-17T02:47:32.882Z,18.80
2017-11-17T02:48:05.894Z,18.84
2017-11-17T02:48:38.879Z,18.87
2017-11-17T02:49:12.156Z,18.86
2017-11-17T02:49:45.185Z,18.86
2017-11-17T02:50:18.435Z,18.83
2017-11-17T02:50:51.521Z,18.90
2017-11-17T02:51:24.635Z,18.91
2017-11-17T02:51:57.661Z,18.80
2017-11-17T02:52:30.672Z,18.84
2017-11-17T02:53:03.898Z,18.87
2017-11-17T02:53:36.914Z,18.86
2017-11-17T02:54:10.027Z,18.82
2017-11-17T02:54:43.079Z,18.86
2017-11-17T02:55:15.905Z,18.82
2017-11-17T02:55:48.861Z,18.83
2017-11-17T02:56:21.981Z,18.82
2017-11-17T02:56:55.100Z,18.86
2017-11-17T02:57:28.330Z,18.82
2017-11-17T02:58:01.379Z,18.83
2017-11-17T02:58:34.504Z,18.74
2017-11-17T02:59:07.627Z,18.83
2017-11-17T02:59:40.871Z,18.82
2017-11-17T03:00:14.023Z,18.82
2017-11-17T03:00:47.208Z,18.87
2017-11-17T03:01:20.266Z,18.80
2017-11-17T03:01:53.491Z,18.83
2017-11-17T03:02:26.504Z,18.82
2017-11-17T03:02:59.430Z,18.84
2017-11-17T03:03:32.645Z,18.80
2017-11-17T03:04:05.630Z,18.82
2017-11-17T03:04:38.788Z,18.83
2017-11-17T03:05:11.907Z,18.80
2017-11-17T03:05:45.065Z,18.83
2017-11-17T03:06:18.190Z,18.83
2017-11-17T03:06:51.301Z,18.79
2017-11-17T03:07:24.427Z,18.84
2017-11-17T03:07:57.540Z,18.79
2017-11-17T03:08:30.570Z,18.82
2017-11-17T03:09:03.688Z,18.83
2017-11-17T03:09:36.708Z,18.80
2017-11-17T03:10:09.923Z,18.84
2017-11-17T03:10:42.983Z,18.76
2017-11-17T03:11:16.030Z,18.84
2017-11-17T03:11:49.220Z,18.83
2017-11-17T03:12:22.470Z,18.77
2017-11-17T03:12:55.358Z,18.76
2017-11-17T03:13:28.468Z,18.83
2017-11-17T03:14:01.452Z,18.82
2017-11-17T03:14:34.671Z,18.83
2017-11-17T03:15:07.896Z,18.82
2017-11-17T03:15:41.014Z,18.79
2017-11-17T03:16:13.924Z,18.82
2017-11-17T03:16:46.837Z,18.77
2017-11-17T03:17:19.760Z,18.77
2017-11-17T03:17:53.013Z,18.82
2017-11-17T03:18:26.199Z,18.84
2017-11-17T03:18:59.114Z,18.84
2017-11-17T03:19:32.293Z,18.82
2017-11-17T03:20:05.650Z,18.83
2017-11-17T03:20:38.576Z,18.79
2017-11-17T03:21:11.716Z,18.77
2017-11-17T03:21:44.901Z,18.79
2017-11-17T03:22:17.953Z,18.80
2017-11-17T03:22:51.237Z,18.76
2017-11-17T03:23:24.590Z,18.80
2017-11-17T03:23:57.816Z,18.76
2017-11-17T03:24:30.876Z,18.79
2017-11-17T03:25:03.863Z,18.76
2017-11-17T03:25:36.918Z,18.79
2017-11-17T03:26:10.005Z,18.65
2017-11-17T03:26:42.983Z,18.73
2017-11-17T03:27:16.008Z,18.74
2017-11-17T03:27:48.920Z,18.72
2017-11-17T03:28:22.052Z,18.77
2017-11-17T03:28:55.103Z,18.83
2017-11-17T03:29:28.087Z,18.70
2017-11-17T03:30:01.046Z,18.70
2017-11-17T03:30:34.269Z,18.84
2017-11-17T03:31:07.422Z,18.76
2017-11-17T03:31:40.544Z,18.72
2017-11-17T03:32:13.728Z,18.74
2017-11-17T03:32:46.849Z,18.80
2017-11-17T03:33:19.806Z,18.70
2017-11-17T03:33:52.800Z,18.74
2017-11-17T03:34:25.920Z,18.70
2017-11-17T03:34:59.038Z,18.65
2017-11-17T03:35:32.051Z,18.76
2017-11-17T03:36:05.081Z,18.76
2017-11-17T03:36:38.300Z,18.72
2017-11-17T03:37:11.286Z,18.77
2017-11-17T03:37:44.271Z,18.70
2017-11-17T03:38:17.494Z,18.67
2017-11-17T03:38:50.650Z,18.68
2017-11-17T03:39:23.875Z,18.72
2017-11-17T03:39:57.190Z,18.65
2017-11-17T03:40:30.332Z,18.77
2017-11-17T03:41:03.546Z,18.72
2017-11-17T03:41:36.776Z,18.73
2017-11-17T03:42:10.127Z,18.76
2017-11-17T03:42:43.312Z,18.67
2017-11-17T03:43:16.551Z,18.72
2017-11-17T03:43:49.579Z,18.70
2017-11-17T03:44:22.632Z,18.68
2017-11-17T03:44:55.855Z,18.67
2017-11-17T03:45:28.870Z,18.68
2017-11-17T03:46:01.855Z,18.70
2017-11-17T03:46:34.770Z,18.67
2017-11-17T03:47:07.897Z,18.67
2017-11-17T03:47:40.925Z,18.67
2017-11-17T03:48:13.919Z,18.67
2017-11-17T03:48:46.976Z,18.64
2017-11-17T03:49:20.261Z,18.68
2017-11-17T03:49:55.109Z,18.67
2017-11-17T03:50:28.133Z,18.65
2017-11-17T03:51:01.287Z,18.70
2017-11-17T03:51:34.416Z,18.74
2017-11-17T03:52:07.471Z,18.74
2017-11-17T03:52:40.792Z,18.72
2017-11-17T03:53:13.809Z,18.67
2017-11-17T03:53:46.860Z,18.74
2017-11-17T03:54:19.913Z,18.70
2017-11-17T03:54:53.038Z,18.65
2017-11-17T03:55:26.096Z,18.72
2017-11-17T03:55:59.118Z,18.64
2017-11-17T03:56:32.276Z,18.65
2017-11-17T03:57:05.465Z,18.73
2017-11-17T03:57:38.819Z,18.72
2017-11-17T03:58:12.103Z,18.70
2017-11-17T03:58:45.053Z,18.67
2017-11-17T03:59:18.008Z,18.67
2017-11-17T03:59:51.119Z,18.67
2017-11-17T04:00:24.048Z,18.68
2017-11-17T04:00:57.005Z,18.72
2017-11-17T04:01:29.929Z,18.67
2017-11-17T04:02:03.081Z,18.65
2017-11-17T04:02:36.167Z,18.64
2017-11-17T04:03:09.227Z,18.65
2017-11-17T04:03:42.112Z,18.65
2017-11-17T04:04:15.226Z,18.68
2017-11-17T04:04:48.490Z,18.67
2017-11-17T04:05:21.691Z,18.65
2017-11-17T04:05:54.675Z,18.64
2017-11-17T04:06:27.630Z,18.61
2017-11-17T04:07:00.815Z,18.65
2017-11-17T04:07:33.926Z,18.67
2017-11-17T04:08:07.157Z,18.62
2017-11-17T04:08:40.212Z,18.62
2017-11-17T04:09:13.240Z,18.61
2017-11-17T04:09:46.452Z,18.65
2017-11-17T04:10:19.703Z,18.64
2017-11-17T04:10:53.058Z,18.61
2017-11-17T04:11:26.241Z,18.57
2017-11-17T04:11:59.294Z,18.61
2017-11-17T04:12:32.480Z,18.58
2017-11-17T04:13:05.747Z,18.67
2017-11-17T04:13:38.873Z,18.61
2017-11-17T04:14:11.925Z,18.61
2017-11-17T04:14:45.014Z,18.59
2017-11-17T04:15:18.090Z,18.58
2017-11-17T04:15:51.213Z,18.55
2017-11-17T04:16:24.231Z,18.59
2017-11-17T04:16:57.218Z,18.55
2017-11-17T04:17:30.231Z,18.54
2017-11-17T04:18:03.451Z,18.55
2017-11-17T04:18:36.616Z,18.61
2017-11-17T04:19:09.541Z,18.52
2017-11-17T04:19:42.691Z,18.55
2017-11-17T04:20:15.782Z,18.52
2017-11-17T04:20:48.860Z,18.52
2017-11-17T04:21:21.988Z,18.55
2017-11-17T04:21:55.147Z,18.54
2017-11-17T04:22:28.178Z,18.54
2017-11-17T04:23:01.134Z,18.50
2017-11-17T04:23:34.021Z,18.49
2017-11-17T04:24:07.279Z,18.52
2017-11-17T04:24:40.203Z,18.52
2017-11-17T04:25:13.156Z,18.54
2017-11-17T04:25:45.982Z,18.54
2017-11-17T04:26:19.163Z,18.55
2017-11-17T04:26:52.150Z,18.52
2017-11-17T04:27:25.162Z,18.52
2017-11-17T04:27:58.348Z,18.55
2017-11-17T04:28:31.358Z,18.55
2017-11-17T04:29:04.245Z,18.46
2017-11-17T04:29:37.301Z,18.58
2017-11-17T04:30:10.189Z,18.55
2017-11-17T04:30:43.740Z,18.54
2017-11-17T04:31:16.865Z,18.54
2017-11-17T04:31:49.951Z,18.49
2017-11-17T04:32:22.977Z,18.54
2017-11-17T04:32:56.025Z,18.44
2017-11-17T04:33:28.951Z,18.49
2017-11-17T04:34:01.974Z,18.54
2017-11-17T04:34:35.095Z,18.49
2017-11-17T04:35:08.348Z,18.40
2017-11-17T04:35:41.575Z,18.47
2017-11-17T04:36:14.731Z,18.37
2017-11-17T04:36:47.853Z,18.49
2017-11-17T04:37:21.128Z,18.50
2017-11-17T04:37:54.056Z,18.57
2017-11-17T04:38:27.166Z,18.49
2017-11-17T04:39:00.196Z,18.46
2017-11-17T04:39:33.314Z,18.47
2017-11-17T04:40:06.340Z,18.46
2017-11-17T04:40:39.495Z,18.49
2017-11-17T04:41:12.716Z,18.42
2017-11-17T04:41:45.773Z,18.54
2017-11-17T04:42:18.823Z,18.47
2017-11-17T04:42:51.835Z,18.42
2017-11-17T04:43:24.960Z,18.42
2017-11-17T04:43:58.172Z,18.42
2017-11-17T04:44:31.495Z,18.57
2017-11-17T04:45:04.853Z,18.34
2017-11-17T04:45:37.991Z,18.39
2017-11-17T04:46:11.301Z,18.40
2017-11-17T04:46:44.485Z,18.37
2017-11-17T04:47:17.637Z,18.42
2017-11-17T04:47:50.689Z,18.40
2017-11-17T04:48:23.802Z,18.39
2017-11-17T04:48:57.025Z,18.43
2017-11-17T04:49:29.941Z,18.39
2017-11-17T04:50:02.826Z,18.39
2017-11-17T04:50:35.782Z,18.37
2017-11-17T04:51:08.716Z,18.33
2017-11-17T04:51:41.960Z,18.33
2017-11-17T04:52:15.247Z,18.31
2017-11-17T04:52:48.106Z,18.40
2017-11-17T04:53:21.018Z,18.42
2017-11-17T04:53:54.172Z,18.37
2017-11-17T04:54:27.095Z,18.34
2017-11-17T04:55:00.012Z,18.39
2017-11-17T04:55:32.935Z,18.39
2017-11-17T04:56:06.089Z,18.40
2017-11-17T04:56:39.175Z,18.40
2017-11-17T04:57:12.429Z,18.42
2017-11-17T04:57:45.512Z,18.37
2017-11-17T04:58:18.570Z,18.40
2017-11-17T04:58:51.785Z,18.43
2017-11-17T04:59:25.037Z,18.34
2017-11-17T04:59:58.265Z,18.34
2017-11-17T05:00:31.175Z,18.34
2017-11-17T05:01:04.401Z,18.34
2017-11-17T05:01:37.451Z,18.31
2017-11-17T05:02:10.532Z,18.33
2017-11-17T05:02:43.490Z,18.33
2017-11-17T05:03:16.612Z,18.34
2017-11-17T05:03:49.826Z,18.31
2017-11-17T05:04:22.676Z,18.36
2017-11-17T05:04:55.832Z,18.28
2017-11-17T05:05:28.755Z,18.36
2017-11-17T05:06:01.907Z,18.33
2017-11-17T05:06:35.094Z,18.36
2017-11-17T05:07:07.950Z,18.36
2017-11-17T05:07:40.905Z,18.31
2017-11-17T05:08:14.162Z,18.25
2017-11-17T05:08:46.995Z,18.29
2017-11-17T05:09:20.035Z,18.36
2017-11-17T05:09:53.161Z,18.31
2017-11-17T05:10:26.214Z,18.29
2017-11-17T05:10:59.244Z,18.24
2017-11-17T05:11:32.361Z,18.29
2017-11-17T05:12:05.480Z,18.27
2017-11-17T05:12:38.598Z,18.21
2017-11-17T05:13:11.683Z,18.27
2017-11-17T05:13:44.835Z,18.27
2017-11-17T05:14:17.859Z,18.18
2017-11-17T05:14:51.239Z,18.19
2017-11-17T05:15:24.321Z,18.24
2017-11-17T05:15:57.291Z,18.29
2017-11-17T05:16:30.467Z,18.22
2017-11-17T05:17:03.721Z,18.18
2017-11-17T05:17:36.948Z,18.18
2017-11-17T05:18:09.966Z,18.18
2017-11-17T05:18:42.890Z,18.24
2017-11-17T05:19:15.915Z,18.22
2017-11-17T05:19:48.999Z,18.17
2017-11-17T05:20:21.953Z,18.18
2017-11-17T05:20:55.128Z,18.19
2017-11-17T05:21:28.236Z,18.21
2017-11-17T05:22:01.060Z,18.15
2017-11-17T05:22:34.010Z,18.18
2017-11-17T05:23:07.142Z,18.18
2017-11-17T05:23:40.284Z,18.13
2017-11-17T05:24:13.310Z,18.15
2017-11-17T05:24:46.265Z,18.18
2017-11-17T05:25:19.146Z,18.13
2017-11-17T05:25:52.429Z,18.18
2017-11-17T05:26:25.352Z,18.13
2017-11-17T05:26:58.503Z,18.12
2017-11-17T05:27:31.327Z,18.13
2017-11-17T05:28:04.417Z,18.19
2017-11-17T05:28:37.672Z,18.12
2017-11-17T05:29:10.628Z,18.15
2017-11-17T05:29:43.810Z,18.09
2017-11-17T05:30:16.864Z,18.10
2017-11-17T05:30:49.786Z,18.15
2017-11-17T05:31:23.124Z,18.04
2017-11-17T05:31:56.362Z,18.07
2017-11-17T05:32:29.564Z,18.03
2017-11-17T05:33:02.792Z,18.10
2017-11-17T05:33:36.046Z,18.06
2017-11-17T05:34:09.227Z,18.04
2017-11-17T05:34:42.339Z,18.07
2017-11-17T05:35:15.181Z,18.04
2017-11-17T05:35:48.177Z,18.07
2017-11-17T05:36:21.129Z,18.03
2017-11-17T05:36:54.181Z,18.09
2017-11-17T05:37:27.311Z,17.97
2017-11-17T05:38:00.568Z,18.02
2017-11-17T05:38:33.595Z,17.95
2017-11-17T05:39:06.607Z,18.00
2017-11-17T05:39:39.935Z,18.03
2017-11-17T05:40:12.748Z,18.04
2017-11-17T05:40:45.932Z,17.94
2017-11-17T05:41:18.947Z,18.00
2017-11-17T05:41:52.056Z,17.95
2017-11-17T05:42:25.075Z,18.00
2017-11-17T05:42:58.201Z,18.06
2017-11-17T05:43:31.214Z,18.09
2017-11-17T05:44:04.106Z,18.04
2017-11-17T05:44:37.353Z,18.07
2017-11-17T05:45:10.338Z,18.06
2017-11-17T05:45:43.691Z,18.00
2017-11-17T05:46:16.916Z,18.04
2017-11-17T05:46:50.067Z,18.03
2017-11-17T05:47:23.183Z,18.09
2017-11-17T05:47:56.190Z,18.04
2017-11-17T05:48:29.376Z,18.07
2017-11-17T05:49:02.734Z,18.07
2017-11-17T05:49:35.962Z,18.07
2017-11-17T05:50:09.214Z,18.07
2017-11-17T05:50:42.241Z,18.07
2017-11-17T05:51:15.394Z,18.06
2017-11-17T05:51:48.316Z,18.09
2017-11-17T05:52:21.373Z,18.06
2017-11-17T05:52:54.279Z,18.09
2017-11-17T05:53:27.330Z,18.13
2017-11-17T05:54:00.213Z,18.12
2017-11-17T05:54:33.432Z,18.13
2017-11-17T05:55:06.311Z,18.15
2017-11-17T05:55:39.427Z,18.09
2017-11-17T05:56:12.310Z,18.13
2017-11-17T05:56:45.365Z,18.13
2017-11-17T05:57:18.689Z,18.17
2017-11-17T05:57:51.801Z,18.22
2017-11-17T05:58:24.950Z,18.12
2017-11-17T05:58:58.163Z,18.22
2017-11-17T05:59:31.039Z,18.13
2017-11-17T06:00:04.097Z,18.15
2017-11-17T06:00:37.082Z,18.21
2017-11-17T06:01:10.292Z,18.18
2017-11-17T06:01:43.312Z,18.22
2017-11-17T06:02:16.366Z,18.28
2017-11-17T06:02:49.454Z,18.25
2017-11-17T06:03:22.426Z,18.25
2017-11-17T06:03:55.546Z,18.27
2017-11-17T06:04:28.698Z,18.18
2017-11-17T06:05:01.679Z,18.25
2017-11-17T06:05:34.837Z,18.25
2017-11-17T06:06:08.072Z,18.21
2017-11-17T06:06:41.221Z,18.24
2017-11-17T06:07:14.310Z,18.28
2017-11-17T06:07:47.304Z,18.25
2017-11-17T06:08:20.195Z,18.36
2017-11-17T06:08:53.272Z,18.28
2017-11-17T06:09:26.393Z,18.33
2017-11-17T06:09:59.302Z,18.34
2017-11-17T06:10:32.392Z,18.29
2017-11-17T06:11:05.539Z,18.36
2017-11-17T06:11:38.561Z,18.24
2017-11-17T06:12:11.671Z,18.29
2017-11-17T06:12:44.795Z,18.33
2017-11-17T06:13:18.044Z,18.31
2017-11-17T06:13:51.128Z,18.34
2017-11-17T06:14:24.368Z,18.34
2017-11-17T06:14:57.350Z,18.31
2017-11-17T06:15:30.398Z,18.33
2017-11-17T06:16:03.382Z,18.29
2017-11-17T06:16:36.631Z,18.34
2017-11-17T06:17:09.849Z,18.36
2017-11-17T06:17:42.912Z,18.37
2017-11-17T06:18:16.037Z,18.34
2017-11-17T06:18:49.149Z,18.40
2017-11-17T06:19:22.136Z,18.42
2017-11-17T06:19:55.121Z,18.40
2017-11-17T06:20:27.996Z,18.39
2017-11-17T06:21:01.048Z,18.39
2017-11-17T06:21:34.071Z,18.44
2017-11-17T06:22:06.992Z,18.39
2017-11-17T06:22:40.112Z,18.33
2017-11-17T06:23:13.122Z,18.39
2017-11-17T06:23:46.050Z,18.40
2017-11-17T06:24:19.001Z,18.37
2017-11-17T06:24:52.226Z,18.42
2017-11-17T06:25:26.059Z,18.46
2017-11-17T06:25:59.047Z,18.40
2017-11-17T06:26:32.055Z,18.50
2017-11-17T06:27:05.147Z,18.52
2017-11-17T06:27:38.047Z,18.49
2017-11-17T06:28:11.128Z,18.52
2017-11-17T06:28:44.283Z,18.50
2017-11-17T06:29:17.561Z,18.50
2017-11-17T06:29:50.715Z,18.49
2017-11-17T06:30:23.697Z,18.47
2017-11-17T06:30:56.875Z,18.55
2017-11-17T06:31:29.899Z,18.52
2017-11-17T06:32:02.806Z,18.43
2017-11-17T06:32:35.792Z,18.52
2017-11-17T06:33:08.941Z,18.52
2017-11-17T06:33:41.931Z,18.50
2017-11-17T06:34:15.136Z,18.57
2017-11-17T06:34:48.155Z,18.47
2017-11-17T06:35:21.208Z,18.49
2017-11-17T06:35:54.328Z,18.52
2017-11-17T06:36:27.466Z,18.54
2017-11-17T06:37:00.691Z,18.52
2017-11-17T06:37:33.707Z,18.52
2017-11-17T06:38:06.830Z,18.52
2017-11-17T06:38:40.086Z,18.61
2017-11-17T06:39:13.309Z,18.55
2017-11-17T06:39:46.263Z,18.57
2017-11-17T06:40:19.142Z,18.57
2017-11-17T06:40:52.391Z,18.65
2017-11-17T06:41:25.417Z,18.58
2017-11-17T06:41:58.455Z,18.57
2017-11-17T06:42:31.475Z,18.67
2017-11-17T06:43:04.636Z,18.62
2017-11-17T06:43:37.856Z,18.62
2017-11-17T06:44:11.068Z,18.62
2017-11-17T06:44:44.090Z,18.57
2017-11-17T06:45:17.252Z,18.61
2017-11-17T06:45:50.462Z,18.58
2017-11-17T06:46:23.618Z,18.55
2017-11-17T06:46:56.645Z,18.59
2017-11-17T06:47:29.617Z,18.58
2017-11-17T06:48:02.637Z,18.67
2017-11-17T06:48:35.552Z,18.64
2017-11-17T06:49:08.636Z,18.72
2017-11-17T06:49:41.750Z,18.64
2017-11-17T06:50:14.926Z,18.67
2017-11-17T06:50:47.877Z,18.65
2017-11-17T06:51:20.756Z,18.64
2017-11-17T06:51:53.765Z,18.70
2017-11-17T06:52:26.648Z,18.67
2017-11-17T06:52:59.827Z,18.68
2017-11-17T06:53:32.945Z,18.67
2017-11-17T06:54:05.956Z,18.67
2017-11-17T06:54:38.880Z,18.70
2017-11-17T06:55:11.930Z,18.67
2017-11-17T06:55:45.050Z,18.64
2017-11-17T06:56:18.301Z,18.77
2017-11-17T06:56:51.324Z,18.72
2017-11-17T06:57:24.232Z,18.65
2017-11-17T06:57:57.155Z,18.72
2017-11-17T06:58:30.192Z,18.70
2017-11-17T06:59:03.415Z,18.67
2017-11-17T06:59:36.562Z,18.70
2017-11-17T07:00:09.689Z,18.72
2017-11-17T07:00:42.741Z,18.70
2017-11-17T07:01:15.628Z,18.68
2017-11-17T07:01:48.634Z,18.64
2017-11-17T07:02:21.563Z,18.68
2017-11-17T07:02:54.823Z,18.65
2017-11-17T07:03:27.643Z,18.68
2017-11-17T07:04:00.782Z,18.77
2017-11-17T07:04:34.010Z,18.65
2017-11-17T07:05:07.324Z,18.72
2017-11-17T07:05:40.351Z,18.76
2017-11-17T07:06:13.603Z,18.72